Time;durP1;ratioP1;P1;durP2;ratioP2;P2;SDS_P1;SDS_P2;PMS_P1;PMS_P2;Temp;Humidity;BMP_temperature;BMP_pressure;BME280_temperature;BME280_humidity;BME280_pressure;Samples;Min_cycle;Max_cycle;Signal;HPM_P1;HPM_P2
2022/11/22 05:02:09;;;;;;;1999.90;999.90;;;6.10;99.90;;;;;;5207052;23;20047;-76
2022/11/22 05:04:34;;;;;;;1999.90;999.90;;;6.00;99.90;;;;;;4999434;28;20401;-76
2022/11/22 05:07:00;;;;;;;1999.90;999.90;;;6.00;99.90;;;;;;5017265;28;20026;-75
2022/11/22 05:09:26;;;;;;;1999.90;999.90;;;6.00;99.90;;;;;;5016962;28;20034;-76
2022/11/22 05:11:52;;;;;;;1999.90;999.90;;;5.90;99.90;;;;;;4999260;28;20436;-76
2022/11/22 05:16:51;;;;;;;1999.90;999.90;;;5.80;99.90;;;;;;4995491;28;20062;-77
2022/11/22 05:19:17;;;;;;;1999.90;999.90;;;5.60;99.90;;;;;;4979501;28;20039;-77
2022/11/22 05:21:42;;;;;;;1999.90;999.90;;;5.50;99.90;;;;;;4997428;28;20037;-77
2022/11/22 05:24:08;;;;;;;1999.90;999.90;;;5.40;99.90;;;;;;4997408;28;20401;-77
2022/11/22 05:26:35;;;;;;;1999.90;999.90;;;5.30;99.90;;;;;;4979265;28;20034;-77
2022/11/22 05:29:06;;;;;;;1999.90;999.90;;;5.20;99.90;;;;;;4996978;28;20063;-77
2022/11/22 05:31:33;;;;;;;1999.90;999.90;;;5.00;99.90;;;;;;4997237;28;20489;-77
2022/11/22 05:33:58;;;;;;;1999.90;999.90;;;5.00;99.90;;;;;;4996622;28;20515;-77
2022/11/22 05:36:24;;;;;;;1999.90;999.90;;;5.00;99.90;;;;;;4996931;28;20034;-77
2022/11/22 05:38:50;;;;;;;1999.90;999.90;;;4.90;99.90;;;;;;4979041;28;20105;-76
2022/11/22 05:41:16;;;;;;;1999.90;999.90;;;4.90;99.90;;;;;;4997201;28;20035;-77
2022/11/22 05:43:42;;;;;;;1999.90;999.90;;;5.10;99.90;;;;;;4979342;28;20514;-77
2022/11/22 05:46:08;;;;;;;1999.90;999.90;;;5.00;99.90;;;;;;4996914;28;20463;-77
2022/11/22 05:48:34;;;;;;;1999.90;999.90;;;5.00;99.90;;;;;;4996741;28;20038;-77
2022/11/22 05:51:08;;;;;;;1999.90;999.90;;;4.90;99.90;;;;;;4977030;28;20034;-77
2022/11/22 05:53:34;;;;;;;1999.90;999.90;;;4.90;99.90;;;;;;4979532;28;20039;-77
2022/11/22 05:56:10;;;;;;;1999.90;999.90;;;5.00;99.90;;;;;;4979480;28;20424;-77
2022/11/22 05:58:36;;;;;;;1999.90;999.90;;;5.20;99.90;;;;;;4997238;28;20045;-77
2022/11/22 06:01:08;;;;;;;1999.90;999.90;;;5.50;99.90;;;;;;4996600;28;20109;-77
2022/11/22 06:03:34;;;;;;;1999.90;999.90;;;5.50;99.90;;;;;;4979116;28;20034;-77
2022/11/22 06:06:00;;;;;;;1999.90;999.90;;;5.60;99.90;;;;;;4996422;28;20046;-77
2022/11/22 06:08:29;;;;;;;1999.90;999.90;;;5.60;99.90;;;;;;4996473;28;20496;-77
2022/11/22 06:10:55;;;;;;;1999.90;999.90;;;5.60;99.90;;;;;;4996497;28;20985;-77
2022/11/22 06:13:21;;;;;;;1999.90;999.90;;;5.60;99.90;;;;;;4996759;28;20074;-77
2022/11/22 06:15:46;;;;;;;1999.90;999.90;;;5.50;99.90;;;;;;4978053;28;20524;-78
2022/11/22 06:18:12;;;;;;;1999.90;999.90;;;5.60;99.90;;;;;;4996676;28;20053;-77
2022/11/22 06:20:37;;;;;;;1999.90;999.90;;;5.60;99.90;;;;;;4978544;28;20031;-77
2022/11/22 06:23:03;;;;;;;1999.90;999.90;;;5.60;99.90;;;;;;4996383;28;20035;-77
2022/11/22 06:25:32;;;;;;;1999.90;999.90;;;5.60;99.90;;;;;;4995915;28;20444;-77
2022/11/22 06:27:58;;;;;;;1999.90;999.90;;;5.60;99.90;;;;;;4978710;28;20170;-77
2022/11/22 06:30:24;;;;;;;1999.90;999.90;;;5.60;99.90;;;;;;4978395;28;20098;-77
2022/11/22 06:32:49;;;;;;;1999.90;999.90;;;5.60;99.90;;;;;;4979416;28;20513;-77
2022/11/22 06:35:15;;;;;;;1999.90;999.90;;;5.70;99.90;;;;;;4996688;28;20413;-77
2022/11/22 06:37:40;;;;;;;1999.90;999.90;;;5.70;99.90;;;;;;4996425;28;20034;-78
2022/11/22 06:40:10;;;;;;;1999.90;999.90;;;5.80;99.90;;;;;;5002308;28;20046;-79
2022/11/22 06:42:36;;;;;;;1999.90;999.90;;;5.80;99.90;;;;;;4994521;28;20034;-79
2022/11/22 06:45:01;;;;;;;1999.90;999.90;;;5.70;99.90;;;;;;4998026;28;20034;-81
2022/11/22 06:47:27;;;;;;;1999.90;999.90;;;5.70;99.90;;;;;;4979676;28;20400;-78
2022/11/22 06:49:52;;;;;;;1999.90;999.90;;;5.70;99.90;;;;;;4979280;28;20042;-78
2022/11/22 06:52:18;;;;;;;1999.90;999.90;;;5.80;99.90;;;;;;4978917;28;20038;-79
2022/11/22 06:54:43;;;;;;;1999.90;999.90;;;5.70;99.90;;;;;;4996601;28;20118;-78
2022/11/22 06:57:12;;;;;;;1999.90;999.90;;;5.70;99.90;;;;;;4997065;28;20038;-79
2022/11/22 06:59:38;;;;;;;1999.90;999.90;;;5.70;99.90;;;;;;4979196;28;20042;-78
2022/11/22 07:02:03;;;;;;;1999.90;999.90;;;5.80;99.90;;;;;;4995570;28;20039;-79
2022/11/22 07:04:29;;;;;;;1999.90;999.90;;;5.90;99.90;;;;;;4996067;28;20072;-78
2022/11/22 07:06:55;;;;;;;1999.90;999.90;;;6.00;99.90;;;;;;4998173;28;20392;-80
2022/11/22 07:09:20;;;;;;;1999.90;999.90;;;6.10;99.90;;;;;;4981540;28;20039;-80
2022/11/22 07:11:46;;;;;;;1999.90;999.90;;;6.10;99.90;;;;;;4997848;28;20039;-77
2022/11/22 07:14:11;;;;;;;1999.90;999.90;;;6.20;99.90;;;;;;4998894;28;20456;-80
2022/11/22 07:16:37;;;;;;;1999.90;999.90;;;6.20;99.90;;;;;;4978694;28;20559;-79
2022/11/22 07:19:03;;;;;;;1999.90;999.90;;;6.20;99.90;;;;;;4980484;28;20142;-79
2022/11/22 07:21:29;;;;;;;1999.90;999.90;;;6.30;99.90;;;;;;4996678;28;20106;-79
2022/11/22 07:23:55;;;;;;;1999.90;999.90;;;6.30;99.90;;;;;;4980262;28;20035;-80
2022/11/22 07:26:22;;;;;;;1999.90;999.90;;;6.30;99.90;;;;;;4998559;28;20433;-79
2022/11/22 07:28:48;;;;;;;1999.90;999.90;;;6.30;99.90;;;;;;4997708;28;20038;-80
2022/11/22 07:31:15;;;;;;;1999.90;999.90;;;6.30;99.90;;;;;;4998496;28;20066;-80
2022/11/22 07:33:41;;;;;;;1999.90;999.90;;;6.30;99.90;;;;;;4998978;28;20038;-81
2022/11/22 07:36:10;;;;;;;1999.90;999.90;;;6.40;99.90;;;;;;4980700;28;20117;-80
2022/11/22 07:38:36;;;;;;;1999.90;999.90;;;6.40;99.90;;;;;;4998882;28;20062;-79
2022/11/22 07:41:02;;;;;;;1999.90;999.90;;;6.50;99.90;;;;;;4999292;28;20077;-80
2022/11/22 07:43:28;;;;;;;1999.90;999.90;;;6.50;99.90;;;;;;4999880;28;20030;-80
2022/11/22 07:46:01;;;;;;;1999.90;999.90;;;6.60;99.90;;;;;;4999666;28;20127;-82
2022/11/22 07:48:27;;;;;;;1999.90;999.90;;;6.60;99.90;;;;;;5000216;28;20045;-80
2022/11/22 07:50:52;;;;;;;1999.90;999.90;;;6.70;99.90;;;;;;4997330;28;20154;-77
2022/11/22 07:53:18;;;;;;;1999.90;999.90;;;6.70;99.90;;;;;;4998712;28;20042;-80
2022/11/22 07:55:43;;;;;;;1999.90;999.90;;;6.70;99.90;;;;;;4983903;28;20031;-80
2022/11/22 07:58:09;;;;;;;1999.90;999.90;;;6.70;99.90;;;;;;5000215;28;20110;-80
2022/11/22 08:00:34;;;;;;;1999.90;999.90;;;6.70;99.90;;;;;;4982824;28;20047;-81
2022/11/22 08:03:00;;;;;;;1999.90;999.90;;;6.70;99.90;;;;;;4982178;28;20424;-82
2022/11/22 08:05:26;;;;;;;1999.90;999.90;;;6.80;99.90;;;;;;4986324;28;20503;-79
2022/11/22 08:07:53;;;;;;;1999.90;999.90;;;6.80;99.90;;;;;;5015207;28;20041;-78
2022/11/22 08:10:19;;;;;;;1999.90;999.90;;;6.70;99.90;;;;;;5013964;28;20043;-82
2022/11/22 08:12:45;;;;;;;1999.90;999.90;;;6.70;99.90;;;;;;5001986;28;20034;-82
2022/11/22 08:15:12;;;;;;;1999.90;999.90;;;6.80;99.90;;;;;;5001031;28;20453;-81
2022/11/22 08:17:38;;;;;;;1999.90;999.90;;;6.80;99.90;;;;;;4983316;28;20049;-79
2022/11/22 08:20:05;;;;;;;1999.90;999.90;;;6.90;99.90;;;;;;5001561;28;20057;-81
2022/11/22 08:22:31;;;;;;;1999.90;999.90;;;6.90;99.90;;;;;;4998707;28;20035;-79
2022/11/22 08:25:12;;;;;;;1999.90;999.90;;;6.90;99.90;;;;;;4999969;28;20392;-80
2022/11/22 08:27:39;;;;;;;1999.90;999.90;;;6.90;99.90;;;;;;4981822;28;20031;-79
2022/11/22 08:30:05;;;;;;;1999.90;999.90;;;7.00;99.90;;;;;;5002769;28;20420;-82
2022/11/22 08:32:30;;;;;;;1999.90;999.90;;;7.00;99.90;;;;;;4999687;28;20866;-77
2022/11/22 08:34:56;;;;;;;1999.90;999.90;;;7.00;99.90;;;;;;4998468;28;20023;-79
2022/11/22 08:37:21;;;;;;;1999.90;999.90;;;7.10;99.90;;;;;;4998558;28;20041;-80
2022/11/22 08:39:47;;;;;;;1999.90;999.90;;;7.20;99.90;;;;;;4997496;28;20047;-79
2022/11/22 08:42:12;;;;;;;1999.90;999.90;;;7.20;99.90;;;;;;4980154;28;20159;-78
2022/11/22 08:44:38;;;;;;;1999.90;999.90;;;7.20;99.90;;;;;;4997784;28;20101;-79
2022/11/22 08:47:03;;;;;;;1999.90;999.90;;;7.30;99.90;;;;;;4998041;28;20031;-79
2022/11/22 08:49:29;;;;;;;1999.90;999.90;;;7.40;99.90;;;;;;4979553;28;20410;-79
2022/11/22 08:51:54;;;;;;;1999.90;999.90;;;7.40;99.90;;;;;;4997985;28;20133;-79
2022/11/22 08:54:20;;;;;;;1999.90;999.90;;;7.50;99.90;;;;;;4980204;28;20506;-79
2022/11/22 08:56:45;;;;;;;1999.90;999.90;;;7.60;99.90;;;;;;4997810;28;20503;-79
2022/11/22 08:59:11;;;;;;;1999.90;999.90;;;7.60;99.90;;;;;;4979710;28;20396;-80
2022/11/22 09:01:36;;;;;;;1999.90;999.90;;;7.70;99.90;;;;;;4997482;28;20400;-79
2022/11/22 09:04:02;;;;;;;1999.90;999.90;;;7.80;99.90;;;;;;4979905;28;20511;-80
2022/11/22 09:06:27;;;;;;;1999.90;999.90;;;7.90;99.90;;;;;;4979806;28;20034;-79
2022/11/22 09:08:53;;;;;;;1999.90;999.90;;;7.90;99.90;;;;;;4979748;28;20066;-79
2022/11/22 09:11:19;;;;;;;1999.90;999.90;;;8.00;99.90;;;;;;4997504;28;20031;-79
2022/11/22 09:13:45;;;;;;;1999.90;999.90;;;8.00;99.90;;;;;;4997924;28;20034;-79
2022/11/22 09:16:14;;;;;;;1999.90;999.90;;;8.10;99.90;;;;;;4997011;28;20137;-79
2022/11/22 09:18:40;;;;;;;1999.90;999.90;;;8.10;99.90;;;;;;4981073;28;20042;-79
2022/11/22 09:21:14;;;;;;;1999.90;999.90;;;8.10;99.90;;;;;;4979265;28;20065;-79
2022/11/22 09:23:42;;;;;;;1999.90;999.90;;;8.10;99.90;;;;;;4978949;28;20031;-79
2022/11/22 09:26:10;;;;;;;1999.90;999.90;;;8.10;99.90;;;;;;4979227;28;20516;-79
2022/11/22 09:28:36;;;;;;;1999.90;999.90;;;8.10;99.90;;;;;;4980274;28;20038;-79
2022/11/22 09:31:13;;;;;;;1999.90;999.90;;;8.20;99.90;;;;;;4998909;28;20042;-80
2022/11/22 09:33:40;;;;;;;1999.90;999.90;;;8.10;99.90;;;;;;5001635;28;20031;-81
2022/11/22 09:36:08;;;;;;;1999.90;999.90;;;8.10;99.90;;;;;;5002446;28;20035;-81
2022/11/22 09:38:35;;;;;;;1999.90;999.90;;;8.20;99.90;;;;;;4982938;28;20022;-79
2022/11/22 09:41:10;;;;;;;1999.90;999.90;;;8.20;99.90;;;;;;4997024;28;20094;-79
2022/11/22 09:43:54;;;;;;;1999.90;999.90;;;8.20;99.90;;;;;;4981437;28;20082;-79
2022/11/22 09:46:31;;;;;;;1999.90;999.90;;;8.30;99.90;;;;;;4983160;28;20043;-82
2022/11/22 09:49:24;;;;;;;1999.90;999.90;;;8.30;99.90;;;;;;4998429;28;20094;-80
2022/11/22 09:52:09;;;;;;;1999.90;999.90;;;8.30;99.90;;;;;;5001198;28;20101;-80
2022/11/22 09:54:54;;;;;;;1999.90;999.90;;;8.40;99.90;;;;;;4978212;28;20085;-80
2022/11/22 09:57:45;;;;;;;1999.90;999.90;;;8.40;99.90;;;;;;4976593;28;20118;-79
2022/11/22 10:00:24;;;;;;;1999.90;999.90;;;8.40;99.90;;;;;;4998888;28;20046;-80
2022/11/22 10:03:03;;;;;;;1999.90;999.90;;;8.40;99.90;;;;;;5000082;28;20526;-80
2022/11/22 10:05:43;;;;;;;1999.90;999.90;;;8.30;99.90;;;;;;4981794;28;20035;-80
2022/11/22 10:08:39;;;;;;;1999.90;999.90;;;8.40;99.90;;;;;;5006697;28;20031;-80
2022/11/22 10:11:40;;;;;;;1999.90;999.90;;;8.60;99.90;;;;;;5008336;28;20135;-80
2022/11/22 10:14:26;;;;;;;1999.90;999.90;;;8.70;99.90;;;;;;4961852;28;20038;-79
2022/11/22 10:17:02;;;;;;;1999.90;999.90;;;8.70;99.90;;;;;;4997922;28;20050;-83
2022/11/22 10:19:38;;;;;;;1999.90;999.90;;;8.90;99.90;;;;;;4997235;28;20055;-80
2022/11/22 10:22:13;;;;;;;1999.90;999.90;;;8.90;99.90;;;;;;4995845;28;20084;-80
2022/11/22 10:24:40;;;;;;;1999.90;999.90;;;9.00;99.90;;;;;;4997817;28;20416;-80
2022/11/22 10:27:12;;;;;;;1999.90;999.90;;;8.80;99.90;;;;;;4980353;28;20045;-80
2022/11/22 10:29:50;;;;;;;1999.90;999.90;;;8.70;99.90;;;;;;4998436;28;20023;-80
2022/11/22 10:32:31;;;;;;;1999.90;999.90;;;8.80;99.90;;;;;;4998812;28;20038;-80
2022/11/22 10:35:22;;;;;;;1999.90;999.90;;;8.90;99.90;;;;;;4998244;28;20027;-80
2022/11/22 10:38:06;;;;;;;1999.90;999.90;;;8.90;99.90;;;;;;4998142;28;20033;-80
2022/11/22 10:40:49;;;;;;;1999.90;999.90;;;8.80;99.90;;;;;;4998400;28;20085;-80
2022/11/22 10:43:20;;;;;;;1999.90;999.90;;;8.70;99.90;;;;;;4998910;28;20042;-80
2022/11/22 10:45:51;;;;;;;1999.90;999.90;;;8.60;99.90;;;;;;4998183;28;20045;-80
2022/11/22 10:48:26;;;;;;;1999.90;999.90;;;8.70;99.90;;;;;;4997548;28;20114;-79
2022/11/22 10:51:18;;;;;;;1999.90;999.90;;;8.70;99.90;;;;;;4997687;28;20035;-79
2022/11/22 10:54:02;;;;;;;1999.90;999.90;;;8.60;99.90;;;;;;4997963;28;20524;-79
2022/11/22 10:56:55;;;;;;;1999.90;999.90;;;8.80;99.90;;;;;;4979553;28;20041;-80
2022/11/22 10:59:51;;;;;;;1999.90;999.90;;;9.00;99.90;;;;;;4997849;28;20126;-79
2022/11/22 11:02:50;;;;;;;1999.90;999.90;;;8.80;99.90;;;;;;4998625;28;20035;-80
2022/11/22 11:05:22;;;;;;;1999.90;999.90;;;8.90;99.90;;;;;;4998143;28;20039;-80
2022/11/22 11:07:50;;;;;;;1999.90;999.90;;;9.00;99.90;;;;;;4997507;28;20042;-80
2022/11/22 11:10:31;;;;;;;1999.90;999.90;;;9.20;99.90;;;;;;4980344;28;20053;-80
2022/11/22 11:13:01;;;;;;;1999.90;999.90;;;9.50;99.90;;;;;;4980295;28;20039;-79
2022/11/22 11:15:45;;;;;;;1999.90;999.90;;;9.40;99.90;;;;;;4997318;28;20046;-80
2022/11/22 11:18:22;;;;;;;1999.90;999.90;;;9.30;99.90;;;;;;4997574;28;20037;-80
2022/11/22 11:20:50;;;;;;;1999.90;999.90;;;9.30;99.90;;;;;;4997365;28;20075;-80
2022/11/22 11:23:15;;;;;;;1999.90;999.90;;;9.40;99.90;;;;;;4997487;28;20022;-80
2022/11/22 11:25:46;;;;;;;1999.90;999.90;;;9.50;99.90;;;;;;4979762;28;20039;-80
2022/11/22 11:28:20;;;;;;;1999.90;999.90;;;9.70;99.90;;;;;;4997665;28;20046;-80
2022/11/22 11:31:08;;;;;;;1999.90;999.90;;;9.80;99.90;;;;;;4997535;28;20035;-80
2022/11/22 11:33:37;;;;;;;1999.90;999.90;;;9.90;99.90;;;;;;4998054;28;20027;-80
2022/11/22 11:36:14;;;;;;;1999.90;999.90;;;9.70;99.90;;;;;;4998160;28;20481;-80
2022/11/22 11:38:40;;;;;;;1999.90;999.90;;;9.60;99.90;;;;;;4980412;28;20027;-80
2022/11/22 11:41:30;;;;;;;1999.90;999.90;;;9.40;99.90;;;;;;4997254;28;20065;-81
2022/11/22 11:43:58;;;;;;;1999.90;999.90;;;9.40;99.90;;;;;;4997029;28;20053;-80
2022/11/22 11:46:25;;;;;;;1999.90;999.90;;;9.20;99.90;;;;;;4978884;28;20500;-80
2022/11/22 11:49:07;;;;;;;1999.90;999.90;;;9.30;99.90;;;;;;4997410;28;20031;-80
2022/11/22 11:51:41;;;;;;;1999.90;999.90;;;9.60;99.90;;;;;;4979948;28;20101;-80
2022/11/22 11:54:14;;;;;;;1999.90;999.90;;;9.70;99.90;;;;;;4979615;28;20031;-80
2022/11/22 11:56:48;;;;;;;1999.90;999.90;;;9.90;99.90;;;;;;4979471;28;20116;-81
2022/11/22 11:59:20;;;;;;;1999.90;999.90;;;10.10;99.90;;;;;;4997644;28;20054;-80
2022/11/22 12:02:01;;;;;;;1999.90;999.90;;;10.20;99.90;;;;;;4978996;28;20570;-80
2022/11/22 12:04:30;;;;;;;1999.90;999.90;;;10.20;99.90;;;;;;4979217;28;20117;-80
2022/11/22 12:07:21;;;;;;;1999.90;999.90;;;10.30;99.90;;;;;;4996319;28;20071;-80
2022/11/22 12:09:49;;;;;;;1999.90;999.90;;;10.10;99.90;;;;;;4997222;28;20539;-80
2022/11/22 12:12:42;;;;;;;1999.90;999.90;;;10.30;99.90;;;;;;4978938;28;20039;-80
2022/11/22 12:15:18;;;;;;;1999.90;999.90;;;10.30;99.90;;;;;;4978249;28;20067;-80
2022/11/22 12:18:29;;;;;;;1999.90;999.90;;;10.20;99.90;;;;;;4979164;28;20049;-80
2022/11/22 12:21:23;;;;;;;1999.90;999.90;;;10.30;99.90;;;;;;4935629;29;20047;-80
2022/11/22 12:24:03;;;;;;;1999.90;999.90;;;10.20;99.90;;;;;;4996912;28;20035;-80
2022/11/22 12:26:29;;;;;;;1999.90;999.90;;;10.20;99.90;;;;;;4978710;28;20158;-80
2022/11/22 12:28:57;;;;;;;1999.90;999.90;;;10.00;99.90;;;;;;4996936;28;20543;-80
2022/11/22 12:31:26;;;;;;;1999.90;999.90;;;10.10;99.90;;;;;;4996738;28;20097;-80
2022/11/22 12:33:59;;;;;;;1999.90;999.90;;;10.10;99.90;;;;;;4979220;28;20079;-80
2022/11/22 12:36:49;;;;;;;1999.90;999.90;;;10.20;99.90;;;;;;4996681;28;20089;-81
2022/11/22 12:39:19;;;;;;;1999.90;999.90;;;10.20;99.90;;;;;;4997066;28;20035;-80
2022/11/22 12:41:46;;;;;;;1999.90;999.90;;;10.30;99.90;;;;;;4979149;28;20089;-80
2022/11/22 12:44:20;;;;;;;1999.90;999.90;;;10.20;99.90;;;;;;4978862;28;20037;-80
2022/11/22 12:46:55;;;;;;;1999.90;999.90;;;10.00;99.90;;;;;;4998254;28;20070;-79
2022/11/22 12:49:38;;;;;;;1999.90;999.90;;;10.00;99.90;;;;;;4980347;28;20564;-81
2022/11/22 12:52:23;;;;;;;1999.90;999.90;;;10.00;99.90;;;;;;4997512;28;20065;-80
2022/11/22 12:55:15;;;;;;;1999.90;999.90;;;9.90;99.90;;;;;;4978755;28;20034;-80
2022/11/22 12:58:21;;;;;;;1999.90;999.90;;;9.80;99.90;;;;;;4978806;28;20117;-80
2022/11/22 13:01:07;;;;;;;1999.90;999.90;;;9.90;99.90;;;;;;4958511;28;20073;-80
2022/11/22 13:03:40;;;;;;;1999.90;999.90;;;9.70;99.90;;;;;;4981508;28;20034;-79
2022/11/22 13:06:09;;;;;;;1999.90;999.90;;;9.80;99.90;;;;;;4998863;28;20081;-80
2022/11/22 13:09:09;;;;;;;1999.90;999.90;;;9.90;99.90;;;;;;4994790;28;20045;-81
2022/11/22 13:11:38;;;;;;;1999.90;999.90;;;9.90;99.90;;;;;;4998336;28;20129;-79
2022/11/22 13:14:21;;;;;;;1999.90;999.90;;;9.90;99.90;;;;;;4981232;28;20038;-80
2022/11/22 13:16:49;;;;;;;1999.90;999.90;;;9.90;99.90;;;;;;4998100;28;20097;-80
2022/11/22 13:19:16;;;;;;;1999.90;999.90;;;9.90;99.90;;;;;;4980769;28;20035;-80
2022/11/22 13:22:00;;;;;;;1999.90;999.90;;;9.90;99.90;;;;;;4999096;28;20046;-80
2022/11/22 13:24:36;;;;;;;1999.90;999.90;;;9.70;99.90;;;;;;5000074;28;20035;-80
2022/11/22 13:27:16;;;;;;;1999.90;999.90;;;9.50;99.90;;;;;;5000990;28;20038;-80
2022/11/22 13:29:43;;;;;;;1999.90;999.90;;;9.60;99.90;;;;;;4983114;28;20125;-81
2022/11/22 13:32:11;;;;;;;1999.90;999.90;;;9.70;99.90;;;;;;4983194;28;20030;-80
2022/11/22 13:34:41;;;;;;;1999.90;999.90;;;9.60;99.90;;;;;;5001055;28;20037;-81
2022/11/22 13:37:14;;;;;;;1999.90;999.90;;;9.60;99.90;;;;;;4983583;28;20034;-79
2022/11/22 13:39:45;;;;;;;1999.90;999.90;;;9.60;99.90;;;;;;4983975;28;20027;-79
2022/11/22 13:42:31;;;;;;;1999.90;999.90;;;9.60;99.90;;;;;;5002151;28;20039;-80
2022/11/22 13:45:11;;;;;;;1999.90;999.90;;;9.60;99.90;;;;;;4979889;28;20524;-80
2022/11/22 13:47:39;;;;;;;1999.90;999.90;;;9.60;99.90;;;;;;4998301;28;20074;-79
2022/11/22 13:50:40;;;;;;;1999.90;999.90;;;9.60;99.90;;;;;;4996954;28;20484;-79
2022/11/22 13:53:18;;;;;;;1999.90;999.90;;;9.50;99.90;;;;;;4970415;28;20393;-80
2022/11/22 13:55:45;;;;;;;1999.90;999.90;;;9.50;99.90;;;;;;4997385;28;20416;-80
2022/11/22 13:58:22;;;;;;;1999.90;999.90;;;9.40;99.90;;;;;;4997568;28;20575;-79
2022/11/22 14:00:49;;;;;;;1999.90;999.90;;;9.40;99.90;;;;;;4996520;28;20042;-80
2022/11/22 14:03:31;;;;;;;1999.90;999.90;;;9.40;99.90;;;;;;4996905;28;20045;-79
2022/11/22 14:05:57;;;;;;;1999.90;999.90;;;9.30;99.90;;;;;;4997311;28;20408;-79
2022/11/22 14:08:39;;;;;;;1999.90;999.90;;;9.30;99.90;;;;;;4996294;28;20038;-79
2022/11/22 14:11:33;;;;;;;1999.90;999.90;;;9.30;99.90;;;;;;4996356;28;20097;-79
2022/11/22 14:14:22;;;;;;;1999.90;999.90;;;9.20;99.90;;;;;;4996937;28;20600;-79
2022/11/22 14:17:04;;;;;;;1999.90;999.90;;;9.10;99.90;;;;;;4996406;28;20497;-79
2022/11/22 14:19:43;;;;;;;1999.90;999.90;;;9.00;99.90;;;;;;4996954;28;20035;-80
2022/11/22 14:22:18;;;;;;;1999.90;999.90;;;8.90;99.90;;;;;;4997214;28;20034;-80
2022/11/22 14:24:49;;;;;;;1999.90;999.90;;;8.90;99.90;;;;;;4999959;28;20015;-79
2022/11/22 14:27:47;;;;;;;1999.90;999.90;;;8.80;99.90;;;;;;4984182;28;20031;-79
2022/11/22 14:30:18;;;;;;;1999.90;999.90;;;8.70;99.90;;;;;;5001543;28;20035;-79
2022/11/22 14:32:57;;;;;;;1999.90;999.90;;;8.70;99.90;;;;;;5000383;28;20062;-79
2022/11/22 14:35:27;;;;;;;1999.90;999.90;;;8.60;99.90;;;;;;4980963;28;20039;-78
2022/11/22 14:38:06;;;;;;;1999.90;999.90;;;8.60;99.90;;;;;;4981671;28;20039;-79
2022/11/22 14:40:33;;;;;;;1999.90;999.90;;;8.60;99.90;;;;;;4999699;28;20089;-79
2022/11/22 14:43:02;;;;;;;1999.90;999.90;;;8.50;99.90;;;;;;5002416;28;20129;-79
2022/11/22 14:45:43;;;;;;;1999.90;999.90;;;8.50;99.90;;;;;;4999188;28;20043;-79
2022/11/22 14:48:34;;;;;;;1999.90;999.90;;;8.40;99.90;;;;;;5000332;28;20054;-79
2022/11/22 14:51:04;;;;;;;1999.90;999.90;;;8.20;99.90;;;;;;4982769;28;20047;-79
2022/11/22 14:53:50;;;;;;;1999.90;999.90;;;8.20;99.90;;;;;;4981925;28;20034;-79
2022/11/22 14:56:25;;;;;;;1999.90;999.90;;;8.10;99.90;;;;;;5005959;28;20042;-79
2022/11/22 14:59:10;;;;;;;1999.90;999.90;;;8.10;99.90;;;;;;4982027;28;20039;-79
2022/11/22 15:01:52;;;;;;;1999.90;999.90;;;8.00;99.90;;;;;;4999801;28;20047;-79
2022/11/22 15:04:23;;;;;;;1999.90;999.90;;;8.00;99.90;;;;;;4998491;28;20113;-79
2022/11/22 15:07:01;;;;;;;1999.90;999.90;;;7.90;99.90;;;;;;5004736;28;20066;-80
2022/11/22 15:09:49;;;;;;;1999.90;999.90;;;7.80;99.90;;;;;;4989722;28;20077;-78
2022/11/22 15:12:33;;;;;;;1999.90;999.90;;;7.70;99.90;;;;;;5002597;28;20038;-77
2022/11/22 15:15:28;;;;;;;1999.90;999.90;;;7.70;99.90;;;;;;4999630;28;20464;-79
2022/11/22 15:18:06;;;;;;;1999.90;999.90;;;7.60;99.90;;;;;;4983804;28;20096;-80
2022/11/22 15:20:32;;;;;;;1999.90;999.90;;;7.50;99.90;;;;;;4976454;28;20035;-80
2022/11/22 15:23:18;;;;;;;1999.90;999.90;;;7.40;99.90;;;;;;4997802;28;20081;-79
2022/11/22 15:25:46;;;;;;;1999.90;999.90;;;7.40;99.90;;;;;;4999896;28;20106;-82
2022/11/22 15:28:19;;;;;;;1999.90;999.90;;;7.40;99.90;;;;;;4998169;28;20118;-78
2022/11/22 15:30:47;;;;;;;1999.90;999.90;;;7.30;99.90;;;;;;4999099;28;20041;-79
2022/11/22 15:33:32;;;;;;;1999.90;999.90;;;7.30;99.90;;;;;;4995811;28;20035;-79
2022/11/22 15:36:35;;;;;;;1999.90;999.90;;;7.20;99.90;;;;;;4998392;28;20073;-81
2022/11/22 15:39:01;;;;;;;1999.90;999.90;;;7.10;99.90;;;;;;4982117;28;20426;-80
2022/11/22 15:41:30;;;;;;;1999.90;999.90;;;7.00;99.90;;;;;;4980045;28;20054;-81
2022/11/22 15:43:58;;;;;;;1999.90;999.90;;;7.00;99.90;;;;;;5000019;28;20041;-80
2022/11/22 15:46:25;;;;;;;1999.90;999.90;;;6.90;99.90;;;;;;5004274;28;20062;-81
2022/11/22 15:48:55;;;;;;;1999.90;999.90;;;7.00;99.90;;;;;;5004914;28;20828;-81
2022/11/22 15:51:30;;;;;;;1999.90;999.90;;;7.00;99.90;;;;;;4988162;28;20103;-80
2022/11/22 15:54:18;;;;;;;1999.90;999.90;;;7.10;99.90;;;;;;5006526;28;20141;-81
2022/11/22 15:56:48;;;;;;;1999.90;999.90;;;7.10;99.90;;;;;;4987228;28;20134;-81
2022/11/22 15:59:23;;;;;;;1999.90;999.90;;;7.20;99.90;;;;;;4984003;28;20034;-80
2022/11/22 16:01:51;;;;;;;1999.90;999.90;;;7.30;99.90;;;;;;5004265;28;20121;-81
2022/11/22 16:04:32;;;;;;;1999.90;999.90;;;7.30;99.90;;;;;;4987134;28;20034;-81
2022/11/22 16:07:01;;;;;;;1999.90;999.90;;;7.30;99.90;;;;;;5003239;28;20127;-81
2022/11/22 16:09:36;;;;;;;1999.90;999.90;;;7.30;99.90;;;;;;5000969;28;20031;-79
2022/11/22 16:12:05;;;;;;;1999.90;999.90;;;7.30;99.90;;;;;;4997159;28;20031;-79
2022/11/22 16:14:57;;;;;;;1999.90;999.90;;;7.40;99.90;;;;;;4979485;28;20031;-80
2022/11/22 16:17:28;;;;;;;1999.90;999.90;;;7.50;99.90;;;;;;4998622;28;20062;-79
2022/11/22 16:20:17;;;;;;;1999.90;999.90;;;7.40;99.90;;;;;;4986150;28;20121;-80
2022/11/22 16:22:42;;;;;;;1999.90;999.90;;;7.50;99.90;;;;;;5027680;28;20106;-80
2022/11/22 16:25:27;;;;;;;1999.90;999.90;;;7.50;99.90;;;;;;5009032;28;20065;-79
2022/11/22 16:27:52;;;;;;;1999.90;999.90;;;7.50;99.90;;;;;;4993383;28;20098;-79
2022/11/22 16:30:18;;;;;;;1999.90;999.90;;;7.50;99.90;;;;;;5009011;28;20061;-80
2022/11/22 16:32:46;;;;;;;1999.90;999.90;;;7.60;99.90;;;;;;5010279;28;20039;-80
2022/11/22 16:35:16;;;;;;;1999.90;999.90;;;7.60;99.90;;;;;;5012185;28;20031;-80
2022/11/22 16:37:43;;;;;;;1999.90;999.90;;;7.60;99.90;;;;;;4991285;28;20126;-80
2022/11/22 16:40:15;;;;;;;1999.90;999.90;;;7.60;99.90;;;;;;4984853;28;20027;-79
2022/11/22 16:42:41;;;;;;;1999.90;999.90;;;7.60;99.90;;;;;;4989434;28;20094;-79
2022/11/22 16:45:16;;;;;;;1999.90;999.90;;;7.60;99.90;;;;;;4987179;28;20034;-79
2022/11/22 16:47:43;;;;;;;1999.90;999.90;;;7.60;99.90;;;;;;4999650;28;20069;-79
2022/11/22 16:50:13;;;;;;;1999.90;999.90;;;7.60;99.90;;;;;;4984016;28;20026;-80
2022/11/22 16:52:39;;;;;;;1999.90;999.90;;;7.60;99.90;;;;;;4983983;28;20031;-80
2022/11/22 16:55:13;;;;;;;1999.90;999.90;;;7.60;99.90;;;;;;4988877;28;20040;-80
2022/11/22 16:57:39;;;;;;;1999.90;999.90;;;7.60;99.90;;;;;;4997166;28;20043;-80
2022/11/22 17:00:05;;;;;;;1999.90;999.90;;;7.50;99.90;;;;;;4983673;28;20038;-80
2022/11/22 17:02:31;;;;;;;1999.90;999.90;;;7.50;99.90;;;;;;5003701;28;20031;-80
2022/11/22 17:04:56;;;;;;;1999.90;999.90;;;7.40;99.90;;;;;;4986251;28;20038;-82
2022/11/22 17:07:22;;;;;;;1999.90;999.90;;;7.40;99.90;;;;;;4986198;28;20070;-80
2022/11/22 17:09:48;;;;;;;1999.90;999.90;;;7.30;99.90;;;;;;4985416;28;20039;-76
2022/11/22 17:12:25;;;;;;;1999.90;999.90;;;7.40;99.90;;;;;;5012076;28;20030;-78
2022/11/22 17:14:51;;;;;;;1999.90;999.90;;;7.40;99.90;;;;;;5029365;22;20047;-79
2022/11/22 17:17:17;;;;;;;1999.90;999.90;;;7.40;99.90;;;;;;5002012;28;20093;-78
2022/11/22 17:19:43;;;;;;;1999.90;999.90;;;7.40;99.90;;;;;;5002460;28;20030;-79
2022/11/22 17:22:10;;;;;;;1999.90;999.90;;;7.40;99.90;;;;;;5019462;28;20400;-79
2022/11/22 17:24:36;;;;;;;1999.90;999.90;;;7.50;99.90;;;;;;5000332;28;20045;-79
2022/11/22 17:27:01;;;;;;;1999.90;999.90;;;7.60;99.90;;;;;;4982108;28;20412;-78
2022/11/22 17:29:27;;;;;;;1999.90;999.90;;;7.60;99.90;;;;;;4982227;28;20066;-79
2022/11/22 17:31:52;;;;;;;1999.90;999.90;;;7.60;99.90;;;;;;5000161;28;20481;-78
2022/11/22 17:34:18;;;;;;;1999.90;999.90;;;7.70;99.90;;;;;;5000795;28;20810;-79
2022/11/22 17:36:43;;;;;;;1999.90;999.90;;;7.70;99.90;;;;;;4982444;28;20547;-79
2022/11/22 17:39:12;;;;;;;1999.90;999.90;;;7.60;99.90;;;;;;4982046;28;20042;-78